Time;durP1;ratioP1;P1;durP2;ratioP2;P2;SDS_P1;SDS_P2;PMS_P1;PMS_P2;Temp;Humidity;BMP_temperature;BMP_pressure;BME280_temperature;BME280_humidity;BME280_pressure;Samples;Min_cycle;Max_cycle;Signal;HPM_P1;HPM_P2
2023/08/13 00:01:46;;;;;;;17.40;15.30;;;;;;;15.10;100.00;99298.71;271088;1266;25284;-82
2023/08/13 00:08:20;;;;;;;18.50;13.60;;;;;;;15.01;100.00;99295.82;271988;1266;22519;-83
2023/08/13 00:14:22;;;;;;;15.70;11.90;;;;;;;14.95;100.00;99295.36;271479;1263;22548;-83
2023/08/13 00:20:24;;;;;;;20.60;11.20;;;;;;;14.94;100.00;99303.95;272375;1267;22540;-82
2023/08/13 00:26:26;;;;;;;14.90;12.70;;;;;;;14.95;100.00;99308.66;272155;1267;24262;-83
2023/08/13 00:32:28;;;;;;;15.90;13.70;;;;;;;14.92;100.00;99306.08;270284;1266;22548;-82
2023/08/13 00:38:30;;;;;;;18.50;13.80;;;;;;;14.86;100.00;99307.81;271062;1267;22220;-83
2023/08/13 00:44:32;;;;;;;18.10;12.50;;;;;;;14.80;100.00;99308.14;272420;1267;23955;-83
2023/08/13 00:50:34;;;;;;;20.90;12.90;;;;;;;14.74;100.00;99312.70;269895;1267;26118;-83
2023/08/13 00:56:44;;;;;;;20.40;14.20;;;;;;;14.66;100.00;99313.96;270841;1266;22519;-83
2023/08/13 01:02:47;;;;;;;14.50;11.90;;;;;;;14.57;100.00;99316.56;270924;1267;22555;-84
2023/08/13 01:09:08;;;;;;;15.50;10.80;;;;;;;14.48;100.00;99320.96;271434;1266;22374;-83
2023/08/13 01:15:42;;;;;;;23.10;14.10;;;;;;;14.40;100.00;99324.19;273088;1267;22642;-83
2023/08/13 01:21:45;;;;;;;16.20;10.90;;;;;;;14.35;100.00;99328.11;273143;1267;22717;-84
2023/08/13 01:28:36;;;;;;;;;;;;;;;;;;;;;
2023/08/13 01:35:03;;;;;;;20.40;13.90;;;;;;;14.38;100.00;99342.44;271856;1267;22379;-86
2023/08/13 01:41:08;;;;;;;20.40;13.60;;;;;;;14.28;100.00;99336.44;271049;1266;25476;-83
2023/08/13 01:47:10;;;;;;;15.30;11.70;;;;;;;14.15;100.00;99336.15;272756;1259;22197;-83
2023/08/13 01:53:30;;;;;;;19.60;12.20;;;;;;;14.05;100.00;99347.46;272541;1263;22563;-84
2023/08/13 02:00:07;;;;;;;18.10;12.70;;;;;;;14.08;100.00;99349.52;270735;1267;22829;-83
2023/08/13 02:07:35;;;;;;;17.30;13.50;;;;;;;14.14;100.00;99346.38;270963;1267;22387;-84
2023/08/13 02:13:32;;;;;;;14.90;12.30;;;;;;;14.19;100.00;99348.05;267953;1267;3333396;-82
2023/08/13 02:19:47;;;;;;;;;;;;;;;;;;;;;
2023/08/13 02:26:14;;;;;;;;;;;;;;;;;;;;;
2023/08/13 02:32:49;;;;;;;14.60;12.10;;;;;;;14.37;100.00;99342.74;270028;1267;22646;-84
2023/08/13 02:39:12;;;;;;;20.00;12.30;;;;;;;14.44;100.00;99338.42;270264;1267;22559;-83
2023/08/13 02:45:24;;;;;;;17.80;13.80;;;;;;;14.45;100.00;99330.48;269878;1265;22224;-83
2023/08/13 02:51:28;;;;;;;15.80;11.70;;;;;;;14.44;100.00;99327.50;270163;1267;23355;-83
2023/08/13 02:57:30;;;;;;;13.80;11.90;;;;;;;14.40;100.00;99317.34;271589;1266;23529;-83
2023/08/13 03:03:32;;;;;;;15.60;11.30;;;;;;;14.38;100.00;99315.77;270804;1266;23428;-85
2023/08/13 03:09:36;;;;;;;13.90;11.00;;;;;;;14.42;100.00;99332.06;271828;1267;22203;-83
2023/08/13 03:15:39;;;;;;;13.40;10.60;;;;;;;14.40;100.00;99341.27;273625;1266;22390;-87
2023/08/13 03:21:42;;;;;;;13.50;10.60;;;;;;;14.44;100.00;99346.54;269690;1266;22703;-84
2023/08/13 03:27:53;;;;;;;12.20;9.60;;;;;;;14.45;100.00;99354.02;272509;1267;22563;-82
2023/08/13 03:33:58;;;;;;;27.50;11.40;;;;;;;14.45;100.00;99356.38;272822;1266;23641;-83
2023/08/13 03:40:06;;;;;;;12.50;8.60;;;;;;;14.44;100.00;99362.29;273448;1267;23236;-83
2023/08/13 03:46:07;;;;;;;11.40;8.30;;;;;;;14.38;100.00;99364.86;272426;1261;22549;-83
2023/08/13 03:52:09;;;;;;;13.10;9.40;;;;;;;14.37;100.00;99365.89;270821;1267;23337;-83
2023/08/13 03:58:14;;;;;;;12.60;9.70;;;;;;;14.39;100.00;99361.96;271426;1268;22378;-84
2023/08/13 04:04:19;;;;;;;11.50;9.70;;;;;;;14.32;100.00;99358.48;273070;1266;22354;-83
2023/08/13 04:10:23;;;;;;;13.10;9.10;;;;;;;14.24;100.00;99358.13;271016;1267;22190;-84
2023/08/13 04:16:29;;;;;;;15.10;9.80;;;;;;;14.19;100.00;99357.88;271504;1267;22493;-83
2023/08/13 04:22:31;;;;;;;11.30;9.70;;;;;;;14.21;100.00;99346.00;270704;1267;22180;-84
2023/08/13 04:28:34;;;;;;;13.10;9.90;;;;;;;14.25;100.00;99344.63;272690;1267;22358;-84
2023/08/13 04:34:37;;;;;;;12.30;9.60;;;;;;;14.37;100.00;99339.92;271303;1267;24332;-83
2023/08/13 04:40:39;;;;;;;14.10;9.00;;;;;;;14.54;100.00;99342.61;272768;1267;22520;-84
2023/08/13 04:46:42;;;;;;;15.70;9.00;;;;;;;14.74;100.00;99341.60;271361;1267;25443;-83
2023/08/13 04:52:44;;;;;;;11.50;9.80;;;;;;;14.89;100.00;99343.16;270777;1256;22540;-84
2023/08/13 04:58:48;;;;;;;14.10;10.60;;;;;;;15.08;100.00;99339.27;271787;1267;22430;-84
2023/08/13 05:04:53;;;;;;;11.50;9.60;;;;;;;15.29;100.00;99335.30;271333;1267;22582;-83
2023/08/13 05:10:56;;;;;;;11.00;9.10;;;;;;;15.48;100.00;99340.39;271190;1267;23287;-83
2023/08/13 05:17:02;;;;;;;13.60;9.60;;;;;;;15.69;100.00;99344.20;271804;1267;22305;-84
2023/08/13 05:23:09;;;;;;;11.90;9.20;;;;;;;15.90;100.00;99348.60;271248;1267;25449;-84
2023/08/13 05:29:21;;;;;;;13.30;9.70;;;;;;;16.10;100.00;99355.77;272373;1266;25300;-87
2023/08/13 05:35:28;;;;;;;10.80;8.60;;;;;;;16.32;100.00;99357.37;271448;1267;22580;-84
2023/08/13 05:41:30;;;;;;;10.40;8.90;;;;;;;16.57;100.00;99355.80;271612;1267;22555;-84
2023/08/13 05:47:33;;;;;;;10.10;8.00;;;;;;;16.83;100.00;99354.51;270371;1267;22188;-89
2023/08/13 05:53:35;;;;;;;10.20;7.90;;;;;;;17.07;100.00;99358.70;269961;1267;22664;-83
2023/08/13 05:59:38;;;;;;;10.10;6.70;;;;;;;17.37;100.00;99352.89;273354;1267;22217;-87
2023/08/13 06:05:40;;;;;;;8.70;5.90;;;;;;;17.65;100.00;99358.85;273522;1267;23270;-83
2023/08/13 06:11:56;;;;;;;8.80;6.00;;;;;;;17.96;100.00;99359.02;272793;1266;22157;-84
2023/08/13 06:17:58;;;;;;;8.10;5.60;;;;;;;18.31;100.00;99357.54;270920;1268;22637;-89
2023/08/13 06:24:15;;;;;;;6.30;5.50;;;;;;;18.67;100.00;99358.83;271998;1269;22223;-83
2023/08/13 06:30:18;;;;;;;7.00;4.90;;;;;;;19.03;100.00;99359.03;271688;1268;23322;-83
2023/08/13 06:36:21;;;;;;;8.00;4.90;;;;;;;19.36;100.00;99361.56;272451;1268;22629;-83
2023/08/13 06:42:23;;;;;;;4.00;3.60;;;;;;;19.66;100.00;99363.61;271199;1269;22294;-83
2023/08/13 06:48:26;;;;;;;5.30;3.50;;;;;;;19.89;100.00;99363.20;273482;1259;22211;-83
2023/08/13 06:54:28;;;;;;;5.50;4.00;;;;;;;20.25;100.00;99364.77;271870;1269;22524;-83
2023/08/13 07:00:30;;;;;;;4.90;3.40;;;;;;;20.64;100.00;99360.31;272527;1268;23267;-83
2023/08/13 07:06:35;;;;;;;5.90;3.90;;;;;;;21.05;100.00;99359.41;272107;1269;24315;-82
2023/08/13 07:12:37;;;;;;;7.20;3.50;;;;;;;21.47;100.00;99365.39;270241;1267;25246;-83
2023/08/13 07:18:42;;;;;;;4.50;3.20;;;;;;;21.79;100.00;99373.58;271398;1268;23187;-83
2023/08/13 07:25:25;;;;;;;3.30;2.80;;;;;;;22.01;100.00;99376.55;270737;1267;22545;-82
2023/08/13 07:32:07;;;;;;;3.20;2.60;;;;;;;22.31;100.00;99379.65;270330;1274;22579;-83
2023/08/13 07:38:09;;;;;;;3.70;2.60;;;;;;;22.70;100.00;99373.82;269424;1267;22917;-82
2023/08/13 07:53:02;;;;;;;3.90;2.40;;;;;;;23.40;100.00;99375.04;271797;1267;22472;-82
2023/08/13 08:07:04;;;;;;;2.60;2.00;;;;;;;24.52;97.09;99367.19;271475;1267;22513;-87
2023/08/13 08:13:06;;;;;;;4.00;2.20;;;;;;;25.10;93.83;99368.52;272165;1267;22458;-83
2023/08/13 08:19:09;;;;;;;3.60;2.10;;;;;;;25.41;91.80;99362.11;271314;1266;22555;-83
2023/08/13 08:25:17;;;;;;;2.20;1.90;;;;;;;25.51;89.23;99359.59;271729;1267;22598;-83
2023/08/13 08:31:21;;;;;;;3.10;2.00;;;;;;;25.56;87.93;99364.09;272590;1266;22851;-85
2023/08/13 08:37:29;;;;;;;2.30;1.90;;;;;;;25.67;86.37;99366.73;272421;1267;22397;-83
2023/08/13 08:43:35;;;;;;;2.90;1.90;;;;;;;25.80;83.92;99360.48;272897;1267;22627;-83
2023/08/13 08:49:37;;;;;;;3.40;1.70;;;;;;;25.89;82.25;99358.36;271346;1267;22538;-82
2023/08/13 08:55:40;;;;;;;4.00;1.70;;;;;;;26.05;81.45;99354.52;271897;1266;22692;-83
2023/08/13 09:01:43;;;;;;;2.90;1.70;;;;;;;26.16;80.53;99348.34;272053;1267;22529;-82
2023/08/13 09:07:47;;;;;;;2.60;1.90;;;;;;;26.27;79.53;99346.54;271937;1263;22536;-84
2023/08/13 09:13:49;;;;;;;2.20;1.80;;;;;;;26.44;78.88;99346.45;272812;1267;22536;-84
2023/08/13 09:19:52;;;;;;;2.40;1.80;;;;;;;26.69;78.56;99348.14;272311;1266;22507;-82
2023/08/13 09:26:14;;;;;;;3.30;1.70;;;;;;;26.90;76.70;99351.02;272607;1267;22522;-83
2023/08/13 09:32:20;;;;;;;2.40;1.70;;;;;;;27.05;74.83;99350.52;272141;1267;22543;-83
2023/08/13 09:38:56;;;;;;;3.10;2.00;;;;;;;27.04;73.46;99349.18;271876;1269;22995;-83
2023/08/13 09:45:25;;;;;;;2.90;1.90;;;;;;;27.26;73.24;99344.08;272587;1267;22612;-83
2023/08/13 09:51:59;;;;;;;2.60;1.90;;;;;;;28.14;72.96;99337.92;271744;1258;23648;-85
2023/08/13 09:58:01;;;;;;;3.70;1.60;;;;;;;29.22;71.12;99328.41;270749;1269;22407;-84
2023/08/13 10:04:06;;;;;;;3.30;1.90;;;;;;;30.15;68.03;99321.23;273667;1267;23095;-85
2023/08/13 10:10:09;;;;;;;1.80;1.70;;;;;;;30.98;65.80;99322.65;273561;1266;23067;-85
2023/08/13 10:16:19;;;;;;;4.10;1.80;;;;;;;31.42;62.06;99327.80;273521;1268;22945;-84
2023/08/13 10:22:36;;;;;;;1.90;1.50;;;;;;;31.57;60.30;99334.70;271068;1269;22552;-84
2023/08/13 10:28:38;;;;;;;3.50;1.70;;;;;;;31.51;59.05;99332.00;273478;1269;22392;-85
2023/08/13 10:34:54;;;;;;;2.30;2.10;;;;;;;31.70;59.40;99329.54;270634;1268;22489;-84
2023/08/13 10:40:58;;;;;;;3.80;1.60;;;;;;;31.87;59.36;99323.59;272340;1269;23276;-84
2023/08/13 10:47:04;;;;;;;3.80;1.60;;;;;;;31.87;57.46;99321.70;271707;1268;22513;-85
2023/08/13 10:53:39;;;;;;;1.90;1.30;;;;;;;31.90;55.62;99324.31;273477;1269;22803;-85
2023/08/13 10:59:41;;;;;;;2.90;1.20;;;;;;;31.86;54.58;99320.09;273319;1268;22516;-86
2023/08/13 11:05:43;;;;;;;2.00;1.70;;;;;;;31.92;52.96;99315.62;273385;1269;22486;-85
2023/08/13 11:11:46;;;;;;;3.90;1.90;;;;;;;32.06;52.17;99320.17;273414;1260;22545;-85
2023/08/13 11:17:48;;;;;;;3.40;1.60;;;;;;;32.37;51.31;99311.34;273149;1267;23025;-86
2023/08/13 11:23:51;;;;;;;3.30;1.70;;;;;;;32.63;50.92;99303.29;273476;1266;23470;-86
2023/08/13 11:29:53;;;;;;;2.70;1.80;;;;;;;32.63;50.50;99302.73;272047;1267;22192;-85
2023/08/13 11:35:55;;;;;;;4.10;2.00;;;;;;;32.60;50.55;99301.91;273557;1267;23013;-85
2023/08/13 11:42:07;;;;;;;3.30;1.50;;;;;;;32.55;50.12;99295.32;272154;1266;22654;-83
2023/08/13 11:48:10;;;;;;;3.20;1.60;;;;;;;32.42;49.86;99300.22;271464;1266;22686;-83
2023/08/13 11:54:12;;;;;;;3.90;1.60;;;;;;;32.15;49.33;99300.71;270614;1267;22658;-82
2023/08/13 12:00:17;;;;;;;2.50;1.50;;;;;;;31.75;47.99;99293.27;270166;1266;23350;-83
2023/08/13 12:06:21;;;;;;;1.80;1.70;;;;;;;31.07;47.97;99295.52;270494;1266;22543;-82
2023/08/13 12:12:25;;;;;;;5.50;1.60;;;;;;;30.73;48.43;99289.48;270459;1267;22405;-85
2023/08/13 12:18:30;;;;;;;4.70;1.70;;;;;;;30.33;48.23;99287.08;273506;1266;22378;-84
2023/08/13 12:24:32;;;;;;;3.10;1.90;;;;;;;29.92;48.64;99286.02;273504;1269;22353;-83
2023/08/13 12:30:33;;;;;;;5.50;1.90;;;;;;;29.67;48.95;99285.65;273391;1267;22381;-83
2023/08/13 12:36:35;;;;;;;1.60;1.40;;;;;;;29.49;49.31;99281.91;273548;1268;22411;-84
2023/08/13 12:42:38;;;;;;;2.10;1.50;;;;;;;29.33;49.73;99279.12;273469;1267;22610;-83
2023/08/13 12:48:40;;;;;;;3.10;1.70;;;;;;;29.12;49.91;99280.45;273531;1269;23290;-83
2023/08/13 12:54:42;;;;;;;3.50;2.10;;;;;;;28.99;50.26;99281.13;273563;1266;22383;-83
2023/08/13 13:00:44;;;;;;;6.20;1.90;;;;;;;28.83;51.01;99277.39;273375;1268;22378;-82
2023/08/13 13:06:46;;;;;;;3.30;1.80;;;;;;;28.68;51.78;99267.59;273387;1269;23113;-83
2023/08/13 13:12:47;;;;;;;5.80;2.10;;;;;;;28.54;51.76;99268.36;273472;1269;22227;-83
2023/08/13 13:18:50;;;;;;;4.90;2.20;;;;;;;28.55;52.24;99263.60;273420;1267;22157;-84
2023/08/13 13:24:52;;;;;;;4.40;2.00;;;;;;;28.55;52.56;99257.16;271858;1269;22489;-82
2023/08/13 13:30:54;;;;;;;3.50;2.00;;;;;;;28.51;53.10;99257.61;273342;1267;25468;-82
2023/08/13 13:36:56;;;;;;;2.10;1.70;;;;;;;28.39;53.39;99257.10;271514;1267;22464;-83
2023/08/13 13:42:58;;;;;;;4.10;1.80;;;;;;;28.35;53.99;99252.52;273248;1267;22362;-84
2023/08/13 13:49:08;;;;;;;4.80;2.00;;;;;;;28.29;54.69;99244.25;273478;1267;22431;-83
2023/08/13 13:55:10;;;;;;;3.80;2.10;;;;;;;28.19;55.07;99245.56;272090;1267;22570;-82
2023/08/13 14:01:12;;;;;;;2.40;1.80;;;;;;;28.15;55.89;99245.87;271976;1267;23869;-83
2023/08/13 14:07:17;;;;;;;2.90;2.00;;;;;;;28.07;55.53;99236.80;264749;1267;10001814;-83
2023/08/13 14:13:19;;;;;;;2.40;1.90;;;;;;;28.04;55.72;99234.83;271561;1266;151696;-84
2023/08/13 14:19:21;;;;;;;2.80;2.50;;;;;;;28.01;56.25;99238.22;272928;1267;23473;-83
2023/08/13 14:25:23;;;;;;;3.20;2.20;;;;;;;27.98;56.46;99228.65;272874;1267;23098;-83
2023/08/13 14:31:25;;;;;;;3.60;2.20;;;;;;;27.93;56.85;99228.42;273410;1267;23449;-83
2023/08/13 14:37:29;;;;;;;7.60;2.00;;;;;;;27.86;57.17;99225.06;273494;1267;22892;-82
2023/08/13 14:43:37;;;;;;;2.10;1.90;;;;;;;27.78;57.45;99224.35;273335;1267;22193;-82
2023/08/13 14:49:38;;;;;;;4.20;2.50;;;;;;;27.75;57.37;99219.77;273294;1267;22423;-83
2023/08/13 14:55:40;;;;;;;3.00;2.30;;;;;;;27.71;57.56;99217.42;273485;1267;22479;-82
2023/08/13 15:01:49;;;;;;;5.10;2.20;;;;;;;27.68;57.61;99215.12;273495;1267;22360;-83
2023/08/13 15:07:51;;;;;;;3.50;2.00;;;;;;;27.65;57.44;99212.68;273517;1266;22367;-84
2023/08/13 15:13:52;;;;;;;3.40;2.30;;;;;;;27.63;57.19;99212.80;273554;1267;22499;-83
2023/08/13 15:19:54;;;;;;;4.80;2.30;;;;;;;27.61;57.29;99214.51;273510;1267;22457;-82
2023/08/13 15:25:57;;;;;;;3.80;2.00;;;;;;;27.53;57.97;99214.36;273575;1267;22367;-83
2023/08/13 15:31:59;;;;;;;3.10;2.20;;;;;;;27.46;57.94;99210.24;273514;1267;22188;-84
2023/08/13 15:38:01;;;;;;;2.50;2.20;;;;;;;27.40;58.27;99210.40;273503;1266;22192;-83
2023/08/13 15:44:04;;;;;;;5.30;3.00;;;;;;;27.31;58.46;99208.13;273494;1267;22552;-83
2023/08/13 15:50:07;;;;;;;2.80;2.20;;;;;;;27.26;59.02;99207.81;272320;1266;22542;-83
2023/08/13 15:56:10;;;;;;;3.10;2.50;;;;;;;27.21;58.65;99207.74;272856;1266;22565;-83
2023/08/13 16:02:14;;;;;;;3.70;2.30;;;;;;;27.13;58.94;99206.22;272020;1266;22548;-83
2023/08/13 16:08:16;;;;;;;5.70;3.20;;;;;;;27.01;59.51;99207.81;272928;1264;22387;-83
2023/08/13 16:14:21;;;;;;;3.80;2.80;;;;;;;26.90;59.59;99210.40;273434;1266;22492;-84
2023/08/13 16:20:23;;;;;;;5.00;2.80;;;;;;;26.80;59.68;99203.55;273456;1267;22353;-83
2023/08/13 16:26:28;;;;;;;5.10;2.90;;;;;;;26.73;59.74;99201.30;273496;1267;22387;-83
2023/08/13 16:32:33;;;;;;;6.20;2.10;;;;;;;26.65;60.33;99202.52;273547;1266;23193;-83
2023/08/13 16:38:38;;;;;;;2.60;2.40;;;;;;;26.55;60.75;99206.73;273457;1266;22992;-83
2023/08/13 16:44:40;;;;;;;3.00;2.10;;;;;;;26.49;60.97;99210.45;273537;1266;22956;-82
2023/08/13 16:50:42;;;;;;;6.60;2.70;;;;;;;26.44;61.33;99211.27;273285;1267;22155;-83
2023/08/13 16:56:46;;;;;;;4.00;2.30;;;;;;;26.36;61.67;99212.58;273483;1267;22381;-83
2023/08/13 17:02:48;;;;;;;3.50;2.00;;;;;;;26.30;61.91;99211.91;273510;1267;22516;-82
2023/08/13 17:08:51;;;;;;;3.80;2.60;;;;;;;26.22;61.80;99215.20;273473;1266;22185;-83
2023/08/13 17:14:52;;;;;;;7.40;2.70;;;;;;;26.15;62.49;99218.09;273523;1266;22470;-82
2023/08/13 17:20:54;;;;;;;3.10;2.50;;;;;;;26.02;62.70;99217.42;273566;1266;23731;-83
2023/08/13 17:26:59;;;;;;;4.70;2.80;;;;;;;25.87;64.08;99220.15;273405;1266;24945;-83
2023/08/13 17:33:01;;;;;;;3.30;2.80;;;;;;;25.71;66.20;99227.55;273592;1266;22197;-83
2023/08/13 17:39:03;;;;;;;8.20;3.10;;;;;;;25.52;67.15;99231.91;273632;1264;22233;-83
2023/08/13 17:45:06;;;;;;;7.80;3.50;;;;;;;25.30;68.18;99234.25;271581;1266;22861;-83
2023/08/13 17:51:08;;;;;;;5.50;3.50;;;;;;;25.07;69.30;99239.42;271896;1264;22495;-83
2023/08/13 17:57:10;;;;;;;5.50;4.20;;;;;;;24.83;70.13;99250.69;271599;1266;22660;-83
2023/08/13 18:03:12;;;;;;;6.90;4.20;;;;;;;24.58;71.65;99259.89;271176;1267;22277;-83
2023/08/13 18:10:11;;;;;;;;;;;;;;;;;;;;;
2023/08/13 18:16:42;;;;;;;8.10;3.60;;;;;;;24.09;74.13;99271.36;272138;1266;22620;-83
2023/08/13 18:22:44;;;;;;;5.20;4.20;;;;;;;23.88;75.36;99271.88;270302;1267;22601;-83
2023/08/13 18:28:46;;;;;;;6.00;3.80;;;;;;;23.67;75.93;99280.49;271551;1264;24478;-83
2023/08/13 18:34:48;;;;;;;7.10;4.90;;;;;;;23.40;77.26;99291.20;272068;1267;22375;-84
2023/08/13 18:40:49;;;;;;;6.50;4.70;;;;;;;23.17;77.96;99300.08;271579;1267;23328;-83
2023/08/13 18:46:51;;;;;;;6.10;4.20;;;;;;;22.97;79.07;99312.45;273456;1266;22409;-83
2023/08/13 18:52:55;;;;;;;9.30;5.00;;;;;;;22.82;79.79;99316.89;273398;1267;22428;-83
2023/08/13 18:58:57;;;;;;;9.30;5.00;;;;;;;22.65;80.63;99314.27;273393;1266;22385;-84
2023/08/13 19:04:59;;;;;;;7.70;5.70;;;;;;;22.49;81.68;99316.20;273469;1266;22394;-83
2023/08/13 19:11:03;;;;;;;11.00;6.00;;;;;;;22.33;82.62;99322.77;273541;1266;22419;-82
2023/08/13 19:17:05;;;;;;;7.30;5.90;;;;;;;22.18;83.16;99324.11;273564;1266;22220;-83
2023/08/13 19:23:08;;;;;;;10.70;5.60;;;;;;;22.02;84.21;99331.69;273513;1266;22399;-83
2023/08/13 19:29:10;;;;;;;10.30;7.00;;;;;;;21.88;85.19;99336.41;273569;1266;23183;-82
2023/08/13 19:35:11;;;;;;;15.50;7.80;;;;;;;21.72;86.02;99330.85;273506;1266;22190;-82
2023/08/13 19:41:13;;;;;;;9.20;6.80;;;;;;;21.55;86.51;99325.11;273598;1266;22187;-82
2023/08/13 19:47:15;;;;;;;8.70;6.40;;;;;;;21.39;87.31;99320.40;273574;1266;22381;-83
2023/08/13 19:53:17;;;;;;;8.40;6.20;;;;;;;21.27;88.14;99315.95;273458;1266;23361;-82
2023/08/13 19:59:19;;;;;;;11.30;7.00;;;;;;;21.16;88.92;99322.39;273574;1267;22373;-82
2023/08/13 20:05:21;;;;;;;8.90;6.90;;;;;;;21.05;89.55;99321.55;273538;1266;22260;-82
2023/08/13 20:11:26;;;;;;;8.90;7.10;;;;;;;20.97;90.51;99330.75;273546;1267;22404;-83
2023/08/13 20:17:31;;;;;;;9.90;7.90;;;;;;;20.83;90.88;99330.66;271105;1267;23329;-82
2023/08/13 20:23:32;;;;;;;11.40;8.70;;;;;;;20.72;91.49;99328.89;270940;1267;22815;-84
2023/08/13 20:29:34;;;;;;;12.50;7.50;;;;;;;20.61;92.01;99330.42;271406;1267;22437;-84
2023/08/13 20:35:36;;;;;;;7.40;6.20;;;;;;;20.44;92.66;99326.70;273616;1260;23246;-83
2023/08/13 20:41:39;;;;;;;8.30;6.30;;;;;;;20.33;93.56;99333.32;273625;1267;23437;-82
2023/08/13 20:47:43;;;;;;;8.90;7.10;;;;;;;20.26;94.37;99332.10;273508;1267;24040;-83
2023/08/13 20:53:45;;;;;;;9.10;8.00;;;;;;;20.23;95.00;99336.48;271351;1267;22519;-83
2023/08/13 20:59:46;;;;;;;9.00;7.00;;;;;;;20.19;95.85;99348.95;270924;1267;23331;-82
2023/08/13 21:05:49;;;;;;;11.90;7.80;;;;;;;20.17;96.53;99354.54;270972;1267;22168;-83
2023/08/13 21:11:51;;;;;;;9.40;7.20;;;;;;;20.16;97.27;99353.45;272948;1267;22533;-82
2023/08/13 21:17:53;;;;;;;11.30;8.50;;;;;;;20.16;97.57;99348.78;269815;1266;22656;-82
2023/08/13 21:23:55;;;;;;;9.50;7.70;;;;;;;20.13;98.02;99348.50;271792;1267;25148;-82
2023/08/13 21:30:11;;;;;;;11.80;7.10;;;;;;;20.12;98.60;99353.67;273632;1266;23769;-83
2023/08/13 21:36:13;;;;;;;11.90;7.30;;;;;;;20.10;99.12;99348.48;273592;1267;22372;-83
2023/08/13 21:42:15;;;;;;;10.50;7.00;;;;;;;20.12;99.74;99350.02;273582;1267;22188;-83
2023/08/13 21:48:17;;;;;;;10.80;8.10;;;;;;;20.11;99.94;99348.44;273574;1267;23022;-83
2023/08/13 21:54:19;;;;;;;16.40;8.20;;;;;;;20.12;100.00;99352.09;273625;1266;23394;-83
2023/08/13 22:00:21;;;;;;;11.20;7.60;;;;;;;20.12;100.00;99354.39;273597;1267;22210;-83
2023/08/13 22:06:22;;;;;;;11.60;7.60;;;;;;;20.12;100.00;99357.33;271934;1267;22560;-82
2023/08/13 22:12:24;;;;;;;9.30;7.50;;;;;;;20.12;100.00;99358.91;272405;1267;23215;-82
2023/08/13 22:18:34;;;;;;;10.70;7.80;;;;;;;20.16;100.00;99356.22;270547;1267;25466;-82
2023/08/13 22:24:48;;;;;;;10.10;6.80;;;;;;;20.21;100.00;99353.59;271870;1266;22926;-82
2023/08/13 22:30:55;;;;;;;9.60;7.10;;;;;;;20.24;100.00;99347.73;272119;1267;23378;-82
2023/08/13 22:36:57;;;;;;;11.40;8.40;;;;;;;20.26;100.00;99344.42;273537;1266;22392;-82
2023/08/13 22:43:02;;;;;;;10.00;7.20;;;;;;;20.25;100.00;99336.34;273466;1266;22339;-82
2023/08/13 22:49:04;;;;;;;8.40;7.00;;;;;;;20.18;100.00;99334.52;273484;1267;22390;-82
2023/08/13 22:55:08;;;;;;;10.90;7.60;;;;;;;20.14;100.00;99334.98;273626;1267;22233;-82
2023/08/13 23:01:10;;;;;;;7.90;6.80;;;;;;;20.15;100.00;99335.77;273683;1267;22284;-83
2023/08/13 23:07:12;;;;;;;10.10;7.40;;;;;;;20.18;100.00;99337.14;273560;1267;24556;-82
2023/08/13 23:13:13;;;;;;;11.20;6.90;;;;;;;20.16;100.00;99329.63;273548;1263;22155;-82
2023/08/13 23:19:15;;;;;;;8.00;6.90;;;;;;;20.09;100.00;99329.30;273507;1266;22193;-82
2023/08/13 23:25:17;;;;;;;10.80;7.20;;;;;;;19.98;100.00;99332.92;273552;1266;22374;-82
2023/08/13 23:31:20;;;;;;;9.10;7.40;;;;;;;19.89;100.00;99327.34;273566;1266;22189;-83
2023/08/13 23:37:22;;;;;;;9.80;7.80;;;;;;;19.86;100.00;99318.98;273649;1266;23233;-82
2023/08/13 23:43:24;;;;;;;12.10;8.30;;;;;;;19.80;100.00;99312.14;273542;1266;22219;-82
2023/08/13 23:49:26;;;;;;;10.40;7.30;;;;;;;19.68;100.00;99314.52;273410;1266;23283;-82
2023/08/13 23:55:27;;;;;;;12.60;8.20;;;;;;;19.56;100.00;99319.84;273446;1266;22492;-82
